createdAt,value
2017-02-02T00:00:00.856Z,984.05
2017-02-02T00:01:10.334Z,984.03
2017-02-02T00:02:21.003Z,984.03
2017-02-02T00:03:31.672Z,983.96
2017-02-02T00:04:42.339Z,983.95
2017-02-02T00:05:53.004Z,983.97
2017-02-02T00:07:03.674Z,983.93
2017-02-02T00:08:13.947Z,983.89
2017-02-02T00:09:24.617Z,983.9
2017-02-02T00:10:35.301Z,983.86
2017-02-02T00:11:45.976Z,983.9
2017-02-02T00:12:56.649Z,983.93
2017-02-02T00:14:07.317Z,983.88
2017-02-02T00:15:17.984Z,983.88
2017-02-02T00:16:28.658Z,983.84
2017-02-02T00:17:39.328Z,983.86
2017-02-02T00:18:49.999Z,983.86
2017-02-02T00:20:00.669Z,983.81
2017-02-02T00:21:11.346Z,983.79
2017-02-02T00:22:22.021Z,983.78
2017-02-02T00:23:32.695Z,983.76
2017-02-02T00:24:43.360Z,983.78
2017-02-02T00:25:54.033Z,983.79
2017-02-02T00:27:04.707Z,983.79
2017-02-02T00:28:15.368Z,983.78
2017-02-02T00:29:26.039Z,983.73
2017-02-02T00:30:36.309Z,983.69
2017-02-02T00:31:46.978Z,983.71
2017-02-02T00:32:57.649Z,983.74
2017-02-02T00:34:08.319Z,983.71
2017-02-02T00:35:18.592Z,983.74
2017-02-02T00:36:29.265Z,983.77
2017-02-02T00:37:39.992Z,983.75
2017-02-02T00:38:50.676Z,983.75
2017-02-02T00:40:01.345Z,983.73
2017-02-02T00:41:11.621Z,983.72
2017-02-02T00:42:22.292Z,983.68
2017-02-02T00:43:32.964Z,983.71
2017-02-02T00:44:43.632Z,983.66
2017-02-02T00:45:54.296Z,983.67
2017-02-02T00:47:04.975Z,983.68
2017-02-02T00:48:15.647Z,983.69
2017-02-02T00:49:26.317Z,983.66
2017-02-02T00:50:36.986Z,983.67
2017-02-02T00:51:47.659Z,983.66
2017-02-02T00:52:58.326Z,983.68
2017-02-02T00:54:08.997Z,983.69
2017-02-02T00:55:19.669Z,983.7
2017-02-02T00:56:30.340Z,983.67
2017-02-02T00:57:41.005Z,983.69
2017-02-02T00:58:51.671Z,983.65
2017-02-02T01:00:02.340Z,983.66
2017-02-02T01:01:12.215Z,983.61
2017-02-02T01:02:22.883Z,983.61
2017-02-02T01:03:33.587Z,983.65
2017-02-02T01:04:44.288Z,983.65
2017-02-02T01:05:54.961Z,983.64
2017-02-02T01:07:05.631Z,983.63
2017-02-02T01:08:15.902Z,983.61
2017-02-02T01:09:26.569Z,983.62
2017-02-02T01:10:37.242Z,983.64
2017-02-02T01:11:47.914Z,983.57
2017-02-02T01:12:58.581Z,983.59
2017-02-02T01:14:09.256Z,983.58
2017-02-02T01:15:19.531Z,983.55
2017-02-02T01:16:30.201Z,983.49
2017-02-02T01:17:40.871Z,983.56
2017-02-02T01:18:51.540Z,983.51
2017-02-02T01:20:02.208Z,983.53
2017-02-02T01:21:12.883Z,983.47
2017-02-02T01:22:23.554Z,983.5
2017-02-02T01:23:34.221Z,983.49
2017-02-02T01:24:44.492Z,983.47
2017-02-02T01:25:55.158Z,983.46
2017-02-02T01:27:05.433Z,983.48
2017-02-02T01:28:16.101Z,983.46
2017-02-02T01:29:26.772Z,983.43
2017-02-02T01:30:37.441Z,983.45
2017-02-02T01:31:48.110Z,983.42
2017-02-02T01:32:58.784Z,983.4
2017-02-02T01:34:09.459Z,983.39
2017-02-02T01:35:20.161Z,983.39
2017-02-02T01:36:30.827Z,983.38
2017-02-02T01:37:41.097Z,983.37
2017-02-02T01:38:51.786Z,983.41
2017-02-02T01:40:02.457Z,983.35
2017-02-02T01:41:12.334Z,983.34
2017-02-02T01:42:23.011Z,983.32
2017-02-02T01:43:33.681Z,983.34
2017-02-02T01:44:44.373Z,983.31
2017-02-02T01:45:55.037Z,983.3
2017-02-02T01:47:05.709Z,983.33
2017-02-02T01:48:16.374Z,983.34
2017-02-02T01:49:27.043Z,983.35
2017-02-02T01:50:37.713Z,983.34
2017-02-02T01:51:48.386Z,983.34
2017-02-02T01:52:59.053Z,983.34
2017-02-02T01:54:09.722Z,983.31
2017-02-02T01:55:20.000Z,983.35
2017-02-02T01:56:30.665Z,983.37
2017-02-02T01:57:41.330Z,983.38
2017-02-02T01:58:52.003Z,983.36
2017-02-02T02:00:02.672Z,983.31
2017-02-02T02:01:12.149Z,983.28
2017-02-02T02:02:22.822Z,983.28
2017-02-02T02:03:33.494Z,983.27
2017-02-02T02:04:44.163Z,983.26
2017-02-02T02:05:54.836Z,983.28
2017-02-02T02:07:05.509Z,983.23
2017-02-02T02:08:15.781Z,983.23
2017-02-02T02:09:26.056Z,983.19
2017-02-02T02:10:36.339Z,983.18
2017-02-02T02:11:47.007Z,983.15
2017-02-02T02:12:57.680Z,983.12
2017-02-02T02:14:08.348Z,983.13
2017-02-02T02:15:18.620Z,983.12
2017-02-02T02:16:29.291Z,983.15
2017-02-02T02:17:39.965Z,983.11
2017-02-02T02:18:50.633Z,983.13
2017-02-02T02:20:01.300Z,983.13
2017-02-02T02:21:11.169Z,983.14
2017-02-02T02:22:21.843Z,983.14
2017-02-02T02:23:32.512Z,983.13
2017-02-02T02:24:43.180Z,983.12
2017-02-02T02:25:53.847Z,983.13
2017-02-02T02:27:04.514Z,983.13
2017-02-02T02:28:14.781Z,983.1
2017-02-02T02:29:25.056Z,983.08
2017-02-02T02:30:35.726Z,983.06
2017-02-02T02:31:46.395Z,983.08
2017-02-02T02:32:57.061Z,983.07
2017-02-02T02:34:07.732Z,983.02
2017-02-02T02:35:17.641Z,983.06
2017-02-02T02:36:27.516Z,983.06
2017-02-02T02:37:38.185Z,983.04
2017-02-02T02:38:48.851Z,983.03
2017-02-02T02:39:59.524Z,983.05
2017-02-02T02:41:10.193Z,983.04
2017-02-02T02:42:20.894Z,983.03
2017-02-02T02:43:31.560Z,982.99
2017-02-02T02:44:42.231Z,983
2017-02-02T02:45:52.897Z,982.97
2017-02-02T02:47:03.562Z,982.9
2017-02-02T02:48:14.234Z,982.95
2017-02-02T02:49:24.905Z,982.95
2017-02-02T02:50:35.578Z,982.92
2017-02-02T02:51:46.252Z,982.89
2017-02-02T02:52:56.924Z,982.86
2017-02-02T02:54:07.592Z,982.87
2017-02-02T02:55:18.260Z,982.81
2017-02-02T02:56:28.924Z,982.83
2017-02-02T02:57:39.598Z,982.8
2017-02-02T02:58:50.297Z,982.81
2017-02-02T03:00:00.971Z,982.81
2017-02-02T03:01:11.254Z,982.79
2017-02-02T03:02:21.924Z,982.79
2017-02-02T03:03:32.193Z,982.77
2017-02-02T03:04:42.862Z,982.79
2017-02-02T03:05:53.533Z,982.77
2017-02-02T03:07:04.210Z,982.75
2017-02-02T03:08:14.879Z,982.79
2017-02-02T03:09:25.551Z,982.76
2017-02-02T03:10:36.224Z,982.77
2017-02-02T03:11:46.499Z,982.8
2017-02-02T03:12:57.186Z,982.77
2017-02-02T03:14:07.854Z,982.79
2017-02-02T03:15:18.566Z,982.79
2017-02-02T03:16:29.229Z,982.78
2017-02-02T03:17:39.898Z,982.79
2017-02-02T03:18:50.572Z,982.84
2017-02-02T03:20:01.255Z,982.82
2017-02-02T03:21:11.931Z,982.83
2017-02-02T03:22:22.207Z,982.83
2017-02-02T03:23:33.227Z,982.81
2017-02-02T03:24:43.905Z,982.86
2017-02-02T03:25:54.576Z,982.82
2017-02-02T03:27:05.242Z,982.8
2017-02-02T03:28:15.513Z,982.82
2017-02-02T03:29:26.182Z,982.79
2017-02-02T03:30:36.854Z,982.78
2017-02-02T03:31:47.520Z,982.78
2017-02-02T03:32:58.188Z,982.77
2017-02-02T03:34:08.888Z,982.79
2017-02-02T03:35:19.554Z,982.78
2017-02-02T03:36:30.223Z,982.8
2017-02-02T03:37:40.892Z,982.78
2017-02-02T03:38:51.571Z,982.78
2017-02-02T03:40:01.844Z,982.75
2017-02-02T03:41:12.509Z,982.73
2017-02-02T03:42:23.209Z,982.73
2017-02-02T03:43:33.907Z,982.72
2017-02-02T03:44:44.576Z,982.71
2017-02-02T03:45:55.252Z,982.69
2017-02-02T03:47:05.523Z,982.71
2017-02-02T03:48:15.798Z,982.67
2017-02-02T03:49:26.064Z,982.65
2017-02-02T03:50:36.340Z,982.63
2017-02-02T03:51:47.007Z,982.66
2017-02-02T03:52:57.680Z,982.64
2017-02-02T03:54:08.353Z,982.67
2017-02-02T03:55:19.023Z,982.67
2017-02-02T03:56:29.691Z,982.62
2017-02-02T03:57:40.360Z,982.65
2017-02-02T03:58:51.028Z,982.62
2017-02-02T04:00:01.306Z,982.6
2017-02-02T04:01:12.005Z,982.56
2017-02-02T04:02:22.675Z,982.58
2017-02-02T04:03:33.337Z,982.6
2017-02-02T04:04:44.008Z,982.62
2017-02-02T04:05:54.709Z,982.63
2017-02-02T04:07:05.376Z,982.6
2017-02-02T04:08:16.044Z,982.61
2017-02-02T04:09:26.708Z,982.61
2017-02-02T04:10:37.402Z,982.6
2017-02-02T04:11:48.069Z,982.52
2017-02-02T04:12:58.733Z,982.59
2017-02-02T04:14:09.403Z,982.59
2017-02-02T04:15:19.675Z,982.56
2017-02-02T04:16:30.442Z,982.54
2017-02-02T04:17:41.113Z,982.53
2017-02-02T04:18:51.781Z,982.48
2017-02-02T04:20:02.452Z,982.47
2017-02-02T04:21:12.727Z,982.46
2017-02-02T04:22:22.993Z,982.46
2017-02-02T04:23:33.669Z,982.45
2017-02-02T04:24:44.340Z,982.44
2017-02-02T04:25:55.017Z,982.42
2017-02-02T04:27:05.684Z,982.42
2017-02-02T04:28:16.352Z,982.43
2017-02-02T04:29:27.022Z,982.41
2017-02-02T04:30:37.694Z,982.43
2017-02-02T04:31:48.364Z,982.43
2017-02-02T04:32:59.031Z,982.44
2017-02-02T04:34:09.701Z,982.43
2017-02-02T04:35:20.373Z,982.45
2017-02-02T04:36:31.045Z,982.47
2017-02-02T04:37:41.713Z,982.47
2017-02-02T04:38:52.375Z,982.45
2017-02-02T04:40:03.040Z,982.47
2017-02-02T04:41:13.712Z,982.46
2017-02-02T04:42:24.379Z,982.52
2017-02-02T04:43:35.058Z,982.55
2017-02-02T04:44:45.729Z,982.53
2017-02-02T04:45:56.396Z,982.52
2017-02-02T04:47:07.068Z,982.51
2017-02-02T04:48:17.734Z,982.52
2017-02-02T04:49:28.423Z,982.51
2017-02-02T04:50:39.133Z,982.5
2017-02-02T04:51:49.801Z,982.53
2017-02-02T04:53:00.471Z,982.47
2017-02-02T04:54:10.744Z,982.51
2017-02-02T04:55:21.412Z,982.46
2017-02-02T04:56:32.085Z,982.46
2017-02-02T04:57:42.785Z,982.4
2017-02-02T04:58:53.456Z,982.36
2017-02-02T05:00:04.125Z,982.35
2017-02-02T05:01:14.396Z,982.32
2017-02-02T05:02:25.066Z,982.33
2017-02-02T05:03:35.733Z,982.3
2017-02-02T05:04:46.404Z,982.28
2017-02-02T05:05:57.073Z,982.28
2017-02-02T05:07:07.747Z,982.28
2017-02-02T05:08:18.420Z,982.31
2017-02-02T05:09:28.691Z,982.23
2017-02-02T05:10:39.362Z,982.22
2017-02-02T05:11:50.032Z,982.2
2017-02-02T05:13:00.712Z,982.2
2017-02-02T05:14:10.981Z,982.22
2017-02-02T05:15:21.649Z,982.22
2017-02-02T05:16:32.316Z,982.18
2017-02-02T05:17:42.980Z,982.2
2017-02-02T05:18:53.648Z,982.19
2017-02-02T05:20:04.324Z,982.17
2017-02-02T05:21:15.019Z,982.19
2017-02-02T05:22:25.690Z,982.17
2017-02-02T05:23:36.362Z,982.16
2017-02-02T05:24:47.070Z,982.17
2017-02-02T05:25:57.735Z,982.18
2017-02-02T05:27:08.407Z,982.21
2017-02-02T05:28:18.677Z,982.19
2017-02-02T05:29:28.948Z,982.2
2017-02-02T05:30:39.217Z,982.21
2017-02-02T05:31:49.887Z,982.2
2017-02-02T05:33:00.557Z,982.18
2017-02-02T05:34:10.830Z,982.16
2017-02-02T05:35:21.501Z,982.18
2017-02-02T05:36:32.176Z,982.16
2017-02-02T05:37:42.843Z,982.14
2017-02-02T05:38:53.517Z,982.12
2017-02-02T05:40:04.187Z,982.14
2017-02-02T05:41:14.862Z,982.1
2017-02-02T05:42:25.569Z,982.09
2017-02-02T05:43:36.241Z,982.11
2017-02-02T05:44:46.908Z,982.06
2017-02-02T05:45:57.579Z,982.1
2017-02-02T05:47:07.846Z,982.05
2017-02-02T05:48:18.513Z,982.07
2017-02-02T05:49:29.182Z,981.99
2017-02-02T05:50:39.848Z,982.03
2017-02-02T05:51:50.517Z,981.99
2017-02-02T05:53:01.184Z,981.99
2017-02-02T05:54:11.859Z,981.94
2017-02-02T05:55:22.531Z,981.95
2017-02-02T05:56:33.198Z,981.93
2017-02-02T05:57:43.872Z,981.91
2017-02-02T05:58:54.544Z,981.94
2017-02-02T06:00:05.221Z,981.87
2017-02-02T06:01:15.489Z,981.92
2017-02-02T06:02:25.759Z,981.92
2017-02-02T06:03:36.036Z,981.91
2017-02-02T06:04:46.712Z,981.88
2017-02-02T06:05:57.386Z,981.92
2017-02-02T06:07:07.658Z,981.94
2017-02-02T06:08:18.322Z,981.91
2017-02-02T06:09:28.993Z,981.88
2017-02-02T06:10:39.661Z,981.91
2017-02-02T06:11:50.327Z,981.93
2017-02-02T06:13:00.994Z,981.89
2017-02-02T06:14:11.671Z,981.89
2017-02-02T06:15:22.341Z,981.9
2017-02-02T06:16:33.007Z,981.86
2017-02-02T06:17:43.674Z,981.87
2017-02-02T06:18:54.348Z,981.87
2017-02-02T06:20:04.616Z,981.88
2017-02-02T06:21:15.311Z,981.88
2017-02-02T06:22:25.983Z,981.88
2017-02-02T06:23:36.649Z,981.91
2017-02-02T06:24:47.316Z,981.92
2017-02-02T06:25:57.994Z,981.88
2017-02-02T06:27:08.267Z,981.9
2017-02-02T06:28:18.533Z,981.93
2017-02-02T06:29:28.804Z,981.88
2017-02-02T06:30:39.481Z,981.86
2017-02-02T06:31:50.156Z,981.87
2017-02-02T06:33:00.828Z,981.86
2017-02-02T06:34:11.106Z,981.89
2017-02-02T06:35:21.777Z,981.91
2017-02-02T06:36:32.444Z,981.87
2017-02-02T06:37:43.115Z,981.84
2017-02-02T06:38:53.779Z,981.87
2017-02-02T06:40:04.445Z,981.89
2017-02-02T06:41:15.113Z,981.87
2017-02-02T06:42:25.779Z,981.86
2017-02-02T06:43:36.531Z,981.89
2017-02-02T06:44:47.594Z,981.9
2017-02-02T06:45:58.264Z,981.85
2017-02-02T06:47:08.543Z,981.88
2017-02-02T06:48:19.221Z,981.89
2017-02-02T06:49:29.894Z,981.86
2017-02-02T06:50:40.564Z,981.9
2017-02-02T06:51:51.239Z,981.9
2017-02-02T06:53:01.908Z,981.87
2017-02-02T06:54:12.577Z,981.89
2017-02-02T06:55:23.244Z,981.89
2017-02-02T06:56:33.513Z,981.9
2017-02-02T06:57:44.186Z,981.9
2017-02-02T06:58:54.860Z,981.89
2017-02-02T07:00:05.528Z,981.93
2017-02-02T07:01:16.201Z,981.98
2017-02-02T07:02:26.876Z,981.95
2017-02-02T07:03:37.574Z,981.94
2017-02-02T07:04:48.241Z,981.94
2017-02-02T07:05:58.911Z,981.94
2017-02-02T07:07:09.187Z,981.92
2017-02-02T07:08:19.855Z,981.95
2017-02-02T07:09:30.526Z,981.95
2017-02-02T07:10:40.802Z,981.92
2017-02-02T07:11:51.500Z,981.94
2017-02-02T07:13:02.170Z,981.93
2017-02-02T07:14:12.836Z,981.94
2017-02-02T07:15:23.503Z,981.91
2017-02-02T07:16:34.170Z,981.92
2017-02-02T07:17:44.836Z,981.85
2017-02-02T07:18:55.505Z,981.9
2017-02-02T07:20:06.198Z,981.88
2017-02-02T07:21:16.073Z,981.88
2017-02-02T07:22:26.352Z,981.87
2017-02-02T07:23:37.021Z,981.84
2017-02-02T07:24:47.689Z,981.85
2017-02-02T07:25:58.354Z,981.85
2017-02-02T07:27:09.026Z,981.9
2017-02-02T07:28:19.704Z,981.86
2017-02-02T07:29:30.371Z,981.87
2017-02-02T07:30:41.048Z,981.85
2017-02-02T07:31:51.713Z,981.81
2017-02-02T07:33:02.381Z,981.82
2017-02-02T07:34:13.048Z,981.84
2017-02-02T07:35:23.718Z,981.83
2017-02-02T07:36:34.387Z,981.78
2017-02-02T07:37:45.055Z,981.79
2017-02-02T07:38:55.730Z,981.81
2017-02-02T07:40:06.399Z,981.82
2017-02-02T07:41:17.325Z,981.79
2017-02-02T07:42:27.993Z,981.82
2017-02-02T07:43:38.661Z,981.83
2017-02-02T07:44:49.336Z,981.85
2017-02-02T07:46:00.001Z,981.88
2017-02-02T07:47:10.269Z,981.86
2017-02-02T07:48:20.938Z,981.87
2017-02-02T07:49:31.618Z,981.86
2017-02-02T07:50:41.904Z,981.87
2017-02-02T07:51:52.572Z,981.86
2017-02-02T07:53:03.245Z,981.88
2017-02-02T07:54:13.913Z,981.84
2017-02-02T07:55:24.586Z,981.85
2017-02-02T07:56:35.295Z,981.87
2017-02-02T07:57:45.960Z,981.9
2017-02-02T07:58:56.629Z,981.89
2017-02-02T08:00:07.293Z,981.87
2017-02-02T08:01:17.967Z,981.87
2017-02-02T08:02:28.640Z,981.87
2017-02-02T08:03:38.519Z,981.86
2017-02-02T08:04:49.187Z,981.89
2017-02-02T08:05:59.853Z,981.87
2017-02-02T08:07:10.129Z,981.84
2017-02-02T08:08:20.822Z,981.89
2017-02-02T08:09:31.491Z,981.87
2017-02-02T08:10:42.166Z,981.89
2017-02-02T08:11:52.836Z,981.91
2017-02-02T08:13:03.506Z,981.96
2017-02-02T08:14:14.176Z,981.93
2017-02-02T08:15:24.836Z,981.99
2017-02-02T08:16:35.507Z,981.99
2017-02-02T08:17:46.184Z,981.95
2017-02-02T08:18:56.857Z,981.97
2017-02-02T08:20:07.525Z,981.96
2017-02-02T08:21:18.193Z,981.97
2017-02-02T08:22:28.865Z,981.96
2017-02-02T08:23:39.533Z,982.01
2017-02-02T08:24:50.201Z,981.94
2017-02-02T08:26:00.871Z,981.96
2017-02-02T08:27:11.150Z,981.92
2017-02-02T08:28:21.817Z,981.97
2017-02-02T08:29:32.493Z,981.93
2017-02-02T08:30:43.172Z,981.92
2017-02-02T08:31:53.842Z,981.91
2017-02-02T08:33:04.516Z,981.87
2017-02-02T08:34:15.186Z,981.85
2017-02-02T08:35:25.858Z,981.84
2017-02-02T08:36:36.530Z,981.85
2017-02-02T08:37:47.201Z,981.85
2017-02-02T08:38:57.866Z,981.82
2017-02-02T08:40:08.567Z,981.83
2017-02-02T08:41:18.841Z,981.82
2017-02-02T08:42:29.518Z,981.77
2017-02-02T08:43:40.191Z,981.79
2017-02-02T08:44:50.867Z,981.79
2017-02-02T08:46:01.539Z,981.8
2017-02-02T08:47:11.818Z,981.76
2017-02-02T08:48:22.490Z,981.76
2017-02-02T08:49:33.157Z,981.78
2017-02-02T08:50:43.431Z,981.75
2017-02-02T08:51:54.110Z,981.72
2017-02-02T08:53:04.780Z,981.72
2017-02-02T08:54:15.463Z,981.69
2017-02-02T08:55:26.134Z,981.76
2017-02-02T08:56:36.805Z,981.76
2017-02-02T08:57:47.084Z,981.74
2017-02-02T08:58:57.770Z,981.7
2017-02-02T09:00:08.441Z,981.73
2017-02-02T09:01:19.116Z,981.7
2017-02-02T09:02:29.803Z,981.7
2017-02-02T09:03:40.480Z,981.7
2017-02-02T09:04:51.150Z,981.72
2017-02-02T09:06:01.819Z,981.74
2017-02-02T09:07:12.101Z,981.73
2017-02-02T09:08:22.791Z,981.73
2017-02-02T09:09:33.472Z,981.71
2017-02-02T09:10:44.143Z,981.75
2017-02-02T09:11:54.816Z,981.72
2017-02-02T09:13:05.485Z,981.74
2017-02-02T09:14:15.756Z,981.74
2017-02-02T09:15:26.427Z,981.71
2017-02-02T09:16:37.096Z,981.67
2017-02-02T09:17:47.772Z,981.66
2017-02-02T09:18:58.443Z,981.66
2017-02-02T09:20:08.725Z,981.7
2017-02-02T09:21:19.433Z,981.69
2017-02-02T09:22:30.101Z,981.64
2017-02-02T09:23:40.772Z,981.67
2017-02-02T09:24:51.447Z,981.68
2017-02-02T09:26:02.114Z,981.66
2017-02-02T09:27:12.785Z,981.65
2017-02-02T09:28:23.453Z,981.69
2017-02-02T09:29:34.127Z,981.68
2017-02-02T09:30:44.792Z,981.63
2017-02-02T09:31:55.469Z,981.61
2017-02-02T09:33:06.145Z,981.62
2017-02-02T09:34:16.814Z,981.6
2017-02-02T09:35:27.490Z,981.61
2017-02-02T09:36:38.163Z,981.63
2017-02-02T09:37:48.842Z,981.61
2017-02-02T09:38:59.541Z,981.61
2017-02-02T09:40:10.217Z,981.56
2017-02-02T09:41:20.887Z,981.57
2017-02-02T09:42:31.558Z,981.59
2017-02-02T09:43:42.243Z,981.56
2017-02-02T09:44:52.514Z,981.61
2017-02-02T09:46:03.190Z,981.64
2017-02-02T09:47:13.469Z,981.65
2017-02-02T09:48:23.749Z,981.63
2017-02-02T09:49:34.430Z,981.62
2017-02-02T09:50:45.107Z,981.64
2017-02-02T09:51:55.783Z,981.62
2017-02-02T09:53:06.461Z,981.59
2017-02-02T09:54:17.187Z,981.59
2017-02-02T09:55:27.863Z,981.59
2017-02-02T09:56:38.571Z,981.57
2017-02-02T09:57:49.246Z,981.57
2017-02-02T09:58:59.918Z,981.58
2017-02-02T10:00:10.590Z,981.57
2017-02-02T10:01:21.262Z,981.56
2017-02-02T10:02:31.935Z,981.55
2017-02-02T10:03:42.604Z,981.52
2017-02-02T10:04:53.279Z,981.52
2017-02-02T10:06:03.553Z,981.48
2017-02-02T10:07:14.232Z,981.43
2017-02-02T10:08:24.911Z,981.41
2017-02-02T10:09:35.590Z,981.43
2017-02-02T10:10:46.269Z,981.46
2017-02-02T10:11:56.945Z,981.47
2017-02-02T10:13:07.219Z,981.45
2017-02-02T10:14:17.904Z,981.48
2017-02-02T10:15:28.577Z,981.47
2017-02-02T10:16:39.251Z,981.44
2017-02-02T10:17:49.523Z,981.44
2017-02-02T10:19:00.229Z,981.38
2017-02-02T10:20:10.504Z,981.43
2017-02-02T10:21:20.775Z,981.42
2017-02-02T10:22:31.451Z,981.47
2017-02-02T10:23:42.126Z,981.45
2017-02-02T10:24:52.826Z,981.41
2017-02-02T10:26:03.107Z,981.45
2017-02-02T10:27:12.991Z,981.43
2017-02-02T10:28:23.695Z,981.48
2017-02-02T10:29:34.652Z,981.42
2017-02-02T10:30:45.334Z,981.43
2017-02-02T10:31:56.140Z,981.44
2017-02-02T10:33:06.882Z,981.45
2017-02-02T10:34:17.163Z,981.43
2017-02-02T10:35:27.834Z,981.4
2017-02-02T10:36:38.508Z,981.38
2017-02-02T10:37:48.386Z,981.36
2017-02-02T10:38:59.121Z,981.39
2017-02-02T10:40:09.804Z,981.38
2017-02-02T10:41:20.484Z,981.41
2017-02-02T10:42:31.164Z,981.39
2017-02-02T10:43:41.479Z,981.36
2017-02-02T10:44:51.758Z,981.36
2017-02-02T10:46:02.428Z,981.37
2017-02-02T10:47:12.714Z,981.36
2017-02-02T10:48:23.393Z,981.36
2017-02-02T10:49:34.072Z,981.35
2017-02-02T10:50:44.748Z,981.33
2017-02-02T10:51:55.422Z,981.4
2017-02-02T10:53:06.092Z,981.34
2017-02-02T10:54:16.766Z,981.32
2017-02-02T10:55:27.441Z,981.33
2017-02-02T10:56:38.116Z,981.32
2017-02-02T10:57:48.791Z,981.34
2017-02-02T10:58:59.474Z,981.31
2017-02-02T11:00:09.749Z,981.33
2017-02-02T11:01:20.418Z,981.25
2017-02-02T11:02:31.097Z,981.28
2017-02-02T11:03:41.769Z,981.24
2017-02-02T11:04:52.438Z,981.25
2017-02-02T11:06:03.116Z,981.26
2017-02-02T11:07:13.491Z,981.19
2017-02-02T11:08:24.170Z,981.18
2017-02-02T11:09:34.843Z,981.2
2017-02-02T11:10:45.515Z,981.19
2017-02-02T11:11:56.185Z,981.17
2017-02-02T11:13:06.889Z,981.14
2017-02-02T11:14:17.168Z,981.11
2017-02-02T11:15:27.848Z,981.11
2017-02-02T11:16:38.522Z,981.14
2017-02-02T11:17:48.399Z,981.09
2017-02-02T11:18:59.073Z,981.15
2017-02-02T11:20:09.754Z,981.1
2017-02-02T11:21:20.031Z,981.09
2017-02-02T11:22:30.731Z,981.11
2017-02-02T11:23:41.412Z,981.09
2017-02-02T11:24:52.088Z,981.05
2017-02-02T11:26:02.763Z,981.05
2017-02-02T11:27:13.038Z,981.04
2017-02-02T11:28:23.713Z,981.06
2017-02-02T11:29:34.395Z,981.06
2017-02-02T11:30:45.068Z,981
2017-02-02T11:31:55.743Z,981.05
2017-02-02T11:33:06.425Z,981.02
2017-02-02T11:34:17.100Z,981
2017-02-02T11:35:27.779Z,981.02
2017-02-02T11:36:38.452Z,981
2017-02-02T11:37:49.130Z,980.99
2017-02-02T11:38:59.797Z,980.95
2017-02-02T11:40:10.476Z,980.92
2017-02-02T11:41:21.144Z,980.92
2017-02-02T11:42:31.418Z,980.91
2017-02-02T11:43:42.098Z,980.88
2017-02-02T11:44:52.768Z,980.88
2017-02-02T11:46:03.446Z,980.87
2017-02-02T11:47:14.122Z,980.88
2017-02-02T11:48:24.824Z,980.85
2017-02-02T11:49:35.496Z,980.86
2017-02-02T11:50:46.168Z,980.83
2017-02-02T11:51:56.844Z,980.84
2017-02-02T11:53:07.539Z,980.85
2017-02-02T11:54:18.218Z,980.83
2017-02-02T11:55:28.891Z,980.86
2017-02-02T11:56:39.575Z,980.81
2017-02-02T11:57:50.255Z,980.73
2017-02-02T11:59:00.955Z,980.76
2017-02-02T12:00:11.626Z,980.73
2017-02-02T12:01:21.895Z,980.71
2017-02-02T12:02:32.570Z,980.74
2017-02-02T12:03:43.274Z,980.71
2017-02-02T12:04:53.554Z,980.68
2017-02-02T12:06:04.237Z,980.69
2017-02-02T12:07:14.919Z,980.72
2017-02-02T12:08:25.594Z,980.65
2017-02-02T12:09:36.271Z,980.69
2017-02-02T12:10:46.542Z,980.65
2017-02-02T12:11:57.221Z,980.65
2017-02-02T12:13:07.501Z,980.6
2017-02-02T12:14:18.182Z,980.62
2017-02-02T12:15:28.858Z,980.61
2017-02-02T12:16:39.533Z,980.56
2017-02-02T12:17:49.806Z,980.59
2017-02-02T12:19:00.477Z,980.58
2017-02-02T12:20:11.153Z,980.57
2017-02-02T12:21:21.437Z,980.57
2017-02-02T12:22:32.120Z,980.52
2017-02-02T12:23:42.796Z,980.52
2017-02-02T12:24:53.474Z,980.49
2017-02-02T12:26:03.747Z,980.53
2017-02-02T12:27:13.623Z,980.48
2017-02-02T12:28:24.303Z,980.49
2017-02-02T12:29:34.975Z,980.49
2017-02-02T12:30:45.257Z,980.43
2017-02-02T12:31:55.933Z,980.46
2017-02-02T12:33:06.646Z,980.47
2017-02-02T12:34:17.324Z,980.45
2017-02-02T12:35:28.006Z,980.47
2017-02-02T12:36:38.676Z,980.51
2017-02-02T12:37:48.955Z,980.47
2017-02-02T12:38:59.648Z,980.46
2017-02-02T12:40:10.326Z,980.5
2017-02-02T12:41:21.001Z,980.44
2017-02-02T12:42:31.682Z,980.41
2017-02-02T12:43:42.353Z,980.44
2017-02-02T12:44:53.038Z,980.42
2017-02-02T12:46:03.713Z,980.39
2017-02-02T12:47:13.605Z,980.38
2017-02-02T12:48:24.279Z,980.38
2017-02-02T12:49:34.957Z,980.4
2017-02-02T12:50:45.239Z,980.35
2017-02-02T12:51:55.512Z,980.34
2017-02-02T12:53:06.187Z,980.33
2017-02-02T12:54:16.863Z,980.36
2017-02-02T12:55:27.538Z,980.39
2017-02-02T12:56:37.817Z,980.42
2017-02-02T12:57:48.490Z,980.37
2017-02-02T12:58:59.163Z,980.37
2017-02-02T13:00:09.839Z,980.42
2017-02-02T13:01:20.520Z,980.41
2017-02-02T13:02:31.200Z,980.34
2017-02-02T13:03:41.908Z,980.4
2017-02-02T13:04:52.578Z,980.39
2017-02-02T13:06:03.268Z,980.39
2017-02-02T13:07:13.547Z,980.39
2017-02-02T13:08:23.826Z,980.41
2017-02-02T13:09:34.500Z,980.38
2017-02-02T13:10:45.204Z,980.38
2017-02-02T13:11:55.882Z,980.41
2017-02-02T13:13:06.159Z,980.37
2017-02-02T13:14:16.835Z,980.32
2017-02-02T13:15:27.530Z,980.32
2017-02-02T13:16:38.205Z,980.29
2017-02-02T13:17:48.879Z,980.31
2017-02-02T13:18:59.151Z,980.3
2017-02-02T13:20:09.426Z,980.29
2017-02-02T13:21:20.096Z,980.28
2017-02-02T13:22:30.771Z,980.28
2017-02-02T13:23:41.464Z,980.24
2017-02-02T13:24:52.178Z,980.23
2017-02-02T13:26:02.463Z,980.23
2017-02-02T13:27:13.205Z,980.23
2017-02-02T13:28:23.881Z,980.18
2017-02-02T13:29:34.160Z,980.21
2017-02-02T13:30:44.835Z,980.23
2017-02-02T13:31:55.114Z,980.21
2017-02-02T13:33:05.790Z,980.19
2017-02-02T13:34:16.063Z,980.2
2017-02-02T13:35:26.349Z,980.22
2017-02-02T13:36:37.026Z,980.25
2017-02-02T13:37:47.308Z,980.18
2017-02-02T13:38:57.987Z,980.22
2017-02-02T13:40:07.874Z,980.15
2017-02-02T13:41:18.152Z,980.12
2017-02-02T13:42:28.823Z,980.1
2017-02-02T13:43:39.499Z,980.1
2017-02-02T13:44:50.179Z,980.06
2017-02-02T13:46:00.849Z,980.06
2017-02-02T13:47:11.127Z,980.02
2017-02-02T13:48:21.406Z,980.07
2017-02-02T13:49:32.078Z,980.07
2017-02-02T13:50:42.783Z,980.1
2017-02-02T13:51:53.461Z,980.04
2017-02-02T13:53:04.143Z,980.09
2017-02-02T13:54:14.811Z,980.06
2017-02-02T13:55:25.488Z,980.05
2017-02-02T13:56:36.167Z,980.02
2017-02-02T13:57:46.480Z,980.04
2017-02-02T13:58:57.160Z,980.02
2017-02-02T14:00:07.837Z,980.03
2017-02-02T14:01:18.510Z,980.03
2017-02-02T14:02:29.184Z,980.02
2017-02-02T14:03:39.902Z,980
2017-02-02T14:04:50.575Z,980.06
2017-02-02T14:06:01.252Z,980.04
2017-02-02T14:07:11.928Z,980.09
2017-02-02T14:08:22.606Z,980.04
2017-02-02T14:09:33.279Z,980.09
2017-02-02T14:10:43.952Z,980.07
2017-02-02T14:11:54.624Z,980.08
2017-02-02T14:13:05.302Z,980.07
2017-02-02T14:14:15.585Z,980.07
2017-02-02T14:15:26.261Z,980.1
2017-02-02T14:16:36.933Z,980.08
2017-02-02T14:17:47.618Z,980.09
2017-02-02T14:18:57.941Z,980.12
2017-02-02T14:20:08.219Z,980.12
2017-02-02T14:21:18.899Z,980.09
2017-02-02T14:22:29.579Z,980.1
2017-02-02T14:23:39.863Z,980.11
2017-02-02T14:24:50.534Z,980.07
2017-02-02T14:26:01.218Z,980.07
2017-02-02T14:27:11.496Z,980.1
2017-02-02T14:28:22.169Z,980.06
2017-02-02T14:29:32.843Z,980.04
2017-02-02T14:30:43.517Z,980.02
2017-02-02T14:31:53.798Z,980.01
2017-02-02T14:33:04.484Z,980.01
2017-02-02T14:34:15.164Z,979.95
2017-02-02T14:35:25.847Z,980.01
2017-02-02T14:36:36.526Z,979.99
2017-02-02T14:37:47.207Z,980
2017-02-02T14:38:57.886Z,980.02
2017-02-02T14:40:08.565Z,980.01
2017-02-02T14:41:19.239Z,979.97
2017-02-02T14:42:29.912Z,980
2017-02-02T14:43:40.585Z,979.98